Shipston-on-Stour, United Kingdom
Current Conditions -  °F | °C
As of 4:50 PM on Friday 24 Oct 2014 (Local Time) from EGTK Reporting Station
Haze Haze  
Wind Chill: 16°   Ceiling: 1100
Heat Index: 16°   Visibility: 6mi
Dew Point: 15°   Wind: 7mph
Humidity: 94%   Direction: 200°SSW
Pressure: 29.85"   Gusts: NA
Location:  52.06°N, 1.63°W
Report Text: EGTK 241550Z 20006KT 9999 3500SE BR SCT009 BKN011 OVC013 16/15 Q1011
Loading
Personal Weather Stations






























Interactive Weather Map
Tropical Storm Tracking
New forecast layout! Learn more

10-Day Weather Forecast

Advertisements
Track Severe Weather on mobile